sensor_id;sensor_type;location;lat;lon;timestamp;temperature;humidity
32502;DHT22;18952;52.516;13.460;2024-01-30T00:00:11;4.80;55.50
32502;DHT22;18952;52.516;13.460;2024-01-30T00:02:42;4.80;55.60
32502;DHT22;18952;52.516;13.460;2024-01-30T00:05:10;4.70;55.70
32502;DHT22;18952;52.516;13.460;2024-01-30T00:07:40;4.70;55.70
32502;DHT22;18952;52.516;13.460;2024-01-30T00:10:08;4.60;55.90
32502;DHT22;18952;52.516;13.460;2024-01-30T00:12:35;4.70;56.10
32502;DHT22;18952;52.516;13.460;2024-01-30T00:15:02;4.60;56.10
32502;DHT22;18952;52.516;13.460;2024-01-30T00:17:31;4.60;56.00
32502;DHT22;18952;52.516;13.460;2024-01-30T00:19:57;4.60;56.10
32502;DHT22;18952;52.516;13.460;2024-01-30T00:22:25;4.60;56.30
32502;DHT22;18952;52.516;13.460;2024-01-30T00:24:51;4.50;56.20
32502;DHT22;18952;52.516;13.460;2024-01-30T00:27:18;4.60;56.40
32502;DHT22;18952;52.516;13.460;2024-01-30T00:29:46;4.50;56.30
32502;DHT22;18952;52.516;13.460;2024-01-30T00:32:18;4.50;56.30
32502;DHT22;18952;52.516;13.460;2024-01-30T00:34:46;4.50;56.10
32502;DHT22;18952;52.516;13.460;2024-01-30T00:37:18;4.50;56.30
32502;DHT22;18952;52.516;13.460;2024-01-30T00:39:46;4.50;56.40
32502;DHT22;18952;52.516;13.460;2024-01-30T00:42:14;4.40;56.30
32502;DHT22;18952;52.516;13.460;2024-01-30T00:44:41;4.40;56.40
32502;DHT22;18952;52.516;13.460;2024-01-30T00:47:08;4.40;56.50
32502;DHT22;18952;52.516;13.460;2024-01-30T00:49:36;4.40;56.60
32502;DHT22;18952;52.516;13.460;2024-01-30T00:52:04;4.40;56.60
32502;DHT22;18952;52.516;13.460;2024-01-30T00:54:32;4.40;56.60
32502;DHT22;18952;52.516;13.460;2024-01-30T00:56:59;4.40;56.60
32502;DHT22;18952;52.516;13.460;2024-01-30T00:59:28;4.30;56.50
32502;DHT22;18952;52.516;13.460;2024-01-30T01:01:55;4.40;56.70
32502;DHT22;18952;52.516;13.460;2024-01-30T01:04:26;4.30;56.80
32502;DHT22;18952;52.516;13.460;2024-01-30T01:06:54;4.30;56.80
32502;DHT22;18952;52.516;13.460;2024-01-30T01:09:21;4.30;56.80
32502;DHT22;18952;52.516;13.460;2024-01-30T01:11:48;4.20;56.90
32502;DHT22;18952;52.516;13.460;2024-01-30T01:14:16;4.30;56.90
32502;DHT22;18952;52.516;13.460;2024-01-30T01:16:43;4.20;56.90
32502;DHT22;18952;52.516;13.460;2024-01-30T01:19:10;4.20;56.90
32502;DHT22;18952;52.516;13.460;2024-01-30T01:21:38;4.20;57.00
32502;DHT22;18952;52.516;13.460;2024-01-30T01:24:05;4.20;57.00
32502;DHT22;18952;52.516;13.460;2024-01-30T01:26:33;4.20;57.10
32502;DHT22;18952;52.516;13.460;2024-01-30T01:29:00;4.10;57.20
32502;DHT22;18952;52.516;13.460;2024-01-30T01:31:28;4.20;57.10
32502;DHT22;18952;52.516;13.460;2024-01-30T01:33:55;4.20;57.00
32502;DHT22;18952;52.516;13.460;2024-01-30T01:36:23;4.20;56.90
32502;DHT22;18952;52.516;13.460;2024-01-30T01:38:52;4.10;57.20
32502;DHT22;18952;52.516;13.460;2024-01-30T01:41:21;4.10;57.20
32502;DHT22;18952;52.516;13.460;2024-01-30T01:43:50;4.10;57.10
32502;DHT22;18952;52.516;13.460;2024-01-30T01:46:17;4.10;57.00
32502;DHT22;18952;52.516;13.460;2024-01-30T01:48:44;4.10;57.10
32502;DHT22;18952;52.516;13.460;2024-01-30T01:51:11;4.00;57.10
32502;DHT22;18952;52.516;13.460;2024-01-30T01:53:38;4.00;57.20
32502;DHT22;18952;52.516;13.460;2024-01-30T01:56:06;4.00;57.20
32502;DHT22;18952;52.516;13.460;2024-01-30T01:58:35;4.00;57.30
32502;DHT22;18952;52.516;13.460;2024-01-30T02:01:13;3.90;57.50
32502;DHT22;18952;52.516;13.460;2024-01-30T02:03:42;3.90;57.70
32502;DHT22;18952;52.516;13.460;2024-01-30T02:06:11;3.90;57.60
32502;DHT22;18952;52.516;13.460;2024-01-30T02:08:40;3.90;57.60
32502;DHT22;18952;52.516;13.460;2024-01-30T02:11:12;3.90;57.60
32502;DHT22;18952;52.516;13.460;2024-01-30T02:13:44;3.90;57.60
32502;DHT22;18952;52.516;13.460;2024-01-30T02:16:11;3.90;57.70
32502;DHT22;18952;52.516;13.460;2024-01-30T02:18:39;3.90;57.70
32502;DHT22;18952;52.516;13.460;2024-01-30T02:21:06;3.90;57.70
32502;DHT22;18952;52.516;13.460;2024-01-30T02:23:34;3.90;57.80
32502;DHT22;18952;52.516;13.460;2024-01-30T02:26:01;3.90;57.90
32502;DHT22;18952;52.516;13.460;2024-01-30T02:28:28;3.90;57.80
32502;DHT22;18952;52.516;13.460;2024-01-30T02:30:55;3.90;57.80
32502;DHT22;18952;52.516;13.460;2024-01-30T02:33:25;3.90;57.80
32502;DHT22;18952;52.516;13.460;2024-01-30T02:35:51;3.90;57.80
32502;DHT22;18952;52.516;13.460;2024-01-30T02:38:18;3.90;58.40
32502;DHT22;18952;52.516;13.460;2024-01-30T02:40:46;3.90;58.00
32502;DHT22;18952;52.516;13.460;2024-01-30T02:43:15;3.90;58.00
32502;DHT22;18952;52.516;13.460;2024-01-30T02:45:42;3.90;58.00
32502;DHT22;18952;52.516;13.460;2024-01-30T02:48:11;3.90;58.50
32502;DHT22;18952;52.516;13.460;2024-01-30T02:50:38;3.90;58.00
32502;DHT22;18952;52.516;13.460;2024-01-30T02:53:07;3.90;58.00
32502;DHT22;18952;52.516;13.460;2024-01-30T02:55:34;4.00;58.10
32502;DHT22;18952;52.516;13.460;2024-01-30T02:58:02;3.90;58.20
32502;DHT22;18952;52.516;13.460;2024-01-30T03:00:29;3.90;58.10
32502;DHT22;18952;52.516;13.460;2024-01-30T03:02:57;3.90;58.20
32502;DHT22;18952;52.516;13.460;2024-01-30T03:05:24;3.90;58.20
32502;DHT22;18952;52.516;13.460;2024-01-30T03:07:51;3.90;58.20
32502;DHT22;18952;52.516;13.460;2024-01-30T03:10:18;3.90;58.20
32502;DHT22;18952;52.516;13.460;2024-01-30T03:12:46;3.90;58.20
32502;DHT22;18952;52.516;13.460;2024-01-30T03:15:14;3.90;58.30
32502;DHT22;18952;52.516;13.460;2024-01-30T03:17:41;3.90;58.30
32502;DHT22;18952;52.516;13.460;2024-01-30T03:20:10;3.90;58.30
32502;DHT22;18952;52.516;13.460;2024-01-30T03:22:40;3.90;58.30
32502;DHT22;18952;52.516;13.460;2024-01-30T03:25:11;3.80;58.30
32502;DHT22;18952;52.516;13.460;2024-01-30T03:27:37;3.80;59.10
32502;DHT22;18952;52.516;13.460;2024-01-30T03:30:06;3.80;58.70
32502;DHT22;18952;52.516;13.460;2024-01-30T03:32:33;3.80;58.70
32502;DHT22;18952;52.516;13.460;2024-01-30T03:35:00;3.80;58.80
32502;DHT22;18952;52.516;13.460;2024-01-30T03:37:27;3.80;58.80
32502;DHT22;18952;52.516;13.460;2024-01-30T03:39:55;3.80;58.80
32502;DHT22;18952;52.516;13.460;2024-01-30T03:42:23;3.80;58.80
32502;DHT22;18952;52.516;13.460;2024-01-30T03:44:50;3.80;58.80
32502;DHT22;18952;52.516;13.460;2024-01-30T03:47:18;3.80;58.90
32502;DHT22;18952;52.516;13.460;2024-01-30T03:49:45;3.80;58.90
32502;DHT22;18952;52.516;13.460;2024-01-30T03:52:13;3.80;59.00
32502;DHT22;18952;52.516;13.460;2024-01-30T03:54:41;3.80;59.00
32502;DHT22;18952;52.516;13.460;2024-01-30T03:57:10;3.80;59.20
32502;DHT22;18952;52.516;13.460;2024-01-30T03:59:37;3.80;59.30
32502;DHT22;18952;52.516;13.460;2024-01-30T04:02:05;3.70;59.60
32502;DHT22;18952;52.516;13.460;2024-01-30T04:04:34;3.70;59.50
32502;DHT22;18952;52.516;13.460;2024-01-30T04:07:01;3.70;59.50
32502;DHT22;18952;52.516;13.460;2024-01-30T04:09:29;3.70;59.60
32502;DHT22;18952;52.516;13.460;2024-01-30T04:11:56;3.70;59.60
32502;DHT22;18952;52.516;13.460;2024-01-30T04:14:24;3.70;59.80
32502;DHT22;18952;52.516;13.460;2024-01-30T04:16:51;3.70;59.80
32502;DHT22;18952;52.516;13.460;2024-01-30T04:19:19;3.70;59.80
32502;DHT22;18952;52.516;13.460;2024-01-30T04:21:46;3.80;59.70
32502;DHT22;18952;52.516;13.460;2024-01-30T04:24:14;3.70;59.70
32502;DHT22;18952;52.516;13.460;2024-01-30T04:26:41;3.70;60.10
32502;DHT22;18952;52.516;13.460;2024-01-30T04:29:09;3.80;60.40
32502;DHT22;18952;52.516;13.460;2024-01-30T04:31:36;3.80;60.20
32502;DHT22;18952;52.516;13.460;2024-01-30T04:34:04;3.80;60.00
32502;DHT22;18952;52.516;13.460;2024-01-30T04:36:31;3.70;60.10
32502;DHT22;18952;52.516;13.460;2024-01-30T04:38:58;3.80;60.00
32502;DHT22;18952;52.516;13.460;2024-01-30T04:41:26;3.90;60.00
32502;DHT22;18952;52.516;13.460;2024-01-30T04:43:54;3.80;60.00
32502;DHT22;18952;52.516;13.460;2024-01-30T04:46:20;3.80;60.00
32502;DHT22;18952;52.516;13.460;2024-01-30T04:48:48;3.90;60.00
32502;DHT22;18952;52.516;13.460;2024-01-30T04:51:16;3.80;60.10
32502;DHT22;18952;52.516;13.460;2024-01-30T04:53:43;3.80;60.10
32502;DHT22;18952;52.516;13.460;2024-01-30T04:56:11;3.80;60.00
32502;DHT22;18952;52.516;13.460;2024-01-30T04:58:41;3.80;60.00
32502;DHT22;18952;52.516;13.460;2024-01-30T05:01:09;3.80;60.20
32502;DHT22;18952;52.516;13.460;2024-01-30T05:03:37;3.80;60.30
32502;DHT22;18952;52.516;13.460;2024-01-30T05:06:05;3.80;60.20
32502;DHT22;18952;52.516;13.460;2024-01-30T05:08:32;3.80;60.50
32502;DHT22;18952;52.516;13.460;2024-01-30T05:11:05;3.80;60.50
32502;DHT22;18952;52.516;13.460;2024-01-30T05:13:32;3.80;60.50
32502;DHT22;18952;52.516;13.460;2024-01-30T05:16:02;3.80;60.70
32502;DHT22;18952;52.516;13.460;2024-01-30T05:18:30;3.80;60.60
32502;DHT22;18952;52.516;13.460;2024-01-30T05:20:57;3.80;61.00
32502;DHT22;18952;52.516;13.460;2024-01-30T05:23:25;3.80;60.50
32502;DHT22;18952;52.516;13.460;2024-01-30T05:25:52;3.80;60.50
32502;DHT22;18952;52.516;13.460;2024-01-30T05:28:21;3.80;60.70
32502;DHT22;18952;52.516;13.460;2024-01-30T05:30:48;3.80;60.60
32502;DHT22;18952;52.516;13.460;2024-01-30T05:33:16;3.80;60.70
32502;DHT22;18952;52.516;13.460;2024-01-30T05:35:43;3.70;60.60
32502;DHT22;18952;52.516;13.460;2024-01-30T05:38:11;3.70;60.70
32502;DHT22;18952;52.516;13.460;2024-01-30T05:40:38;3.80;60.80
32502;DHT22;18952;52.516;13.460;2024-01-30T05:43:06;3.70;60.90
32502;DHT22;18952;52.516;13.460;2024-01-30T05:45:34;3.70;61.00
32502;DHT22;18952;52.516;13.460;2024-01-30T05:48:02;3.70;61.10
32502;DHT22;18952;52.516;13.460;2024-01-30T05:50:30;3.70;61.10
32502;DHT22;18952;52.516;13.460;2024-01-30T05:52:57;3.70;61.00
32502;DHT22;18952;52.516;13.460;2024-01-30T05:55:26;3.70;61.10
32502;DHT22;18952;52.516;13.460;2024-01-30T05:57:54;3.70;61.00
32502;DHT22;18952;52.516;13.460;2024-01-30T06:00:21;3.70;61.10
32502;DHT22;18952;52.516;13.460;2024-01-30T06:02:48;3.70;61.20
32502;DHT22;18952;52.516;13.460;2024-01-30T06:05:17;3.70;61.00
32502;DHT22;18952;52.516;13.460;2024-01-30T06:07:47;3.70;61.70
32502;DHT22;18952;52.516;13.460;2024-01-30T06:10:17;3.60;61.10
32502;DHT22;18952;52.516;13.460;2024-01-30T06:12:44;3.60;61.30
32502;DHT22;18952;52.516;13.460;2024-01-30T06:15:12;3.60;61.30
32502;DHT22;18952;52.516;13.460;2024-01-30T06:17:42;3.60;61.50
32502;DHT22;18952;52.516;13.460;2024-01-30T06:20:10;3.60;61.70
32502;DHT22;18952;52.516;13.460;2024-01-30T06:22:38;3.60;61.70
32502;DHT22;18952;52.516;13.460;2024-01-30T06:25:09;3.60;61.70
32502;DHT22;18952;52.516;13.460;2024-01-30T06:27:35;3.60;61.60
32502;DHT22;18952;52.516;13.460;2024-01-30T06:30:05;3.60;61.60
32502;DHT22;18952;52.516;13.460;2024-01-30T06:32:32;3.60;61.80
32502;DHT22;18952;52.516;13.460;2024-01-30T06:35:03;3.60;61.80
32502;DHT22;18952;52.516;13.460;2024-01-30T06:37:32;3.60;61.80
32502;DHT22;18952;52.516;13.460;2024-01-30T06:39:59;3.60;61.70
32502;DHT22;18952;52.516;13.460;2024-01-30T06:42:27;3.60;61.70
32502;DHT22;18952;52.516;13.460;2024-01-30T06:44:54;3.60;61.70
32502;DHT22;18952;52.516;13.460;2024-01-30T06:47:20;3.60;61.70
32502;DHT22;18952;52.516;13.460;2024-01-30T06:49:47;3.60;61.80
32502;DHT22;18952;52.516;13.460;2024-01-30T06:52:18;3.60;61.80
32502;DHT22;18952;52.516;13.460;2024-01-30T06:54:44;3.60;61.90
32502;DHT22;18952;52.516;13.460;2024-01-30T06:57:12;3.60;61.90
32502;DHT22;18952;52.516;13.460;2024-01-30T06:59:39;3.70;61.90
32502;DHT22;18952;52.516;13.460;2024-01-30T07:02:09;3.70;61.90
32502;DHT22;18952;52.516;13.460;2024-01-30T07:04:39;3.60;62.00
32502;DHT22;18952;52.516;13.460;2024-01-30T07:07:13;3.60;62.50
32502;DHT22;18952;52.516;13.460;2024-01-30T07:09:41;3.70;62.00
32502;DHT22;18952;52.516;13.460;2024-01-30T07:12:11;3.60;62.00
32502;DHT22;18952;52.516;13.460;2024-01-30T07:14:40;3.70;62.00
32502;DHT22;18952;52.516;13.460;2024-01-30T07:17:09;3.70;61.80
32502;DHT22;18952;52.516;13.460;2024-01-30T07:19:35;3.80;61.80
32502;DHT22;18952;52.516;13.460;2024-01-30T07:22:04;3.80;61.70
32502;DHT22;18952;52.516;13.460;2024-01-30T07:24:30;3.80;61.50
32502;DHT22;18952;52.516;13.460;2024-01-30T07:26:57;3.80;61.50
32502;DHT22;18952;52.516;13.460;2024-01-30T07:29:24;3.70;61.60
32502;DHT22;18952;52.516;13.460;2024-01-30T07:31:54;3.80;61.60
32502;DHT22;18952;52.516;13.460;2024-01-30T07:34:21;3.80;61.70
32502;DHT22;18952;52.516;13.460;2024-01-30T07:36:48;3.90;61.60
32502;DHT22;18952;52.516;13.460;2024-01-30T07:39:16;3.90;61.30
32502;DHT22;18952;52.516;13.460;2024-01-30T07:41:43;4.00;61.30
32502;DHT22;18952;52.516;13.460;2024-01-30T07:44:11;4.00;61.20
32502;DHT22;18952;52.516;13.460;2024-01-30T07:46:37;4.00;61.30
32502;DHT22;18952;52.516;13.460;2024-01-30T07:49:06;4.10;61.00
32502;DHT22;18952;52.516;13.460;2024-01-30T07:51:34;4.20;60.80
32502;DHT22;18952;52.516;13.460;2024-01-30T07:54:04;4.20;60.70
32502;DHT22;18952;52.516;13.460;2024-01-30T07:56:31;4.20;60.60
32502;DHT22;18952;52.516;13.460;2024-01-30T07:58:59;4.30;60.40
32502;DHT22;18952;52.516;13.460;2024-01-30T08:01:26;4.30;60.80
32502;DHT22;18952;52.516;13.460;2024-01-30T08:03:55;4.40;60.10
32502;DHT22;18952;52.516;13.460;2024-01-30T08:06:22;4.40;60.10
32502;DHT22;18952;52.516;13.460;2024-01-30T08:08:49;4.40;59.90
32502;DHT22;18952;52.516;13.460;2024-01-30T08:11:17;4.40;59.70
32502;DHT22;18952;52.516;13.460;2024-01-30T08:13:45;4.50;59.60
32502;DHT22;18952;52.516;13.460;2024-01-30T08:16:11;4.40;59.70
32502;DHT22;18952;52.516;13.460;2024-01-30T08:18:41;4.40;59.70
32502;DHT22;18952;52.516;13.460;2024-01-30T08:21:12;4.50;59.70
32502;DHT22;18952;52.516;13.460;2024-01-30T08:23:42;4.50;59.70
32502;DHT22;18952;52.516;13.460;2024-01-30T08:26:09;4.50;59.70
32502;DHT22;18952;52.516;13.460;2024-01-30T08:28:36;4.50;59.70
32502;DHT22;18952;52.516;13.460;2024-01-30T08:31:04;4.50;59.70
32502;DHT22;18952;52.516;13.460;2024-01-30T08:33:33;4.50;59.60
32502;DHT22;18952;52.516;13.460;2024-01-30T08:35:59;4.50;59.60
32502;DHT22;18952;52.516;13.460;2024-01-30T08:38:26;4.50;59.60
32502;DHT22;18952;52.516;13.460;2024-01-30T08:40:54;4.60;59.70
32502;DHT22;18952;52.516;13.460;2024-01-30T08:43:21;4.60;59.50
32502;DHT22;18952;52.516;13.460;2024-01-30T08:45:49;4.70;59.40
32502;DHT22;18952;52.516;13.460;2024-01-30T08:48:16;4.80;59.30
32502;DHT22;18952;52.516;13.460;2024-01-30T08:50:43;4.70;59.20
32502;DHT22;18952;52.516;13.460;2024-01-30T08:53:11;4.80;59.20
32502;DHT22;18952;52.516;13.460;2024-01-30T08:55:39;4.80;59.20
32502;DHT22;18952;52.516;13.460;2024-01-30T08:58:07;4.90;59.10
32502;DHT22;18952;52.516;13.460;2024-01-30T09:00:35;5.00;59.00
32502;DHT22;18952;52.516;13.460;2024-01-30T09:03:04;5.00;58.80
32502;DHT22;18952;52.516;13.460;2024-01-30T09:05:30;5.10;58.60
32502;DHT22;18952;52.516;13.460;2024-01-30T09:08:03;5.20;58.60
32502;DHT22;18952;52.516;13.460;2024-01-30T09:10:30;5.30;58.40
32502;DHT22;18952;52.516;13.460;2024-01-30T09:13:00;5.30;58.10
32502;DHT22;18952;52.516;13.460;2024-01-30T09:15:27;5.40;57.90
32502;DHT22;18952;52.516;13.460;2024-01-30T09:17:54;5.40;57.70
32502;DHT22;18952;52.516;13.460;2024-01-30T09:20:21;5.50;57.50
32502;DHT22;18952;52.516;13.460;2024-01-30T09:22:50;5.60;57.30
32502;DHT22;18952;52.516;13.460;2024-01-30T09:25:18;5.60;57.10
32502;DHT22;18952;52.516;13.460;2024-01-30T09:27:50;5.70;56.90
32502;DHT22;18952;52.516;13.460;2024-01-30T09:30:17;5.70;56.70
32502;DHT22;18952;52.516;13.460;2024-01-30T09:32:45;5.70;56.70
32502;DHT22;18952;52.516;13.460;2024-01-30T09:35:12;5.80;56.50
32502;DHT22;18952;52.516;13.460;2024-01-30T09:37:41;5.80;56.20
32502;DHT22;18952;52.516;13.460;2024-01-30T09:40:09;5.80;56.00
32502;DHT22;18952;52.516;13.460;2024-01-30T09:42:38;5.50;56.00
32502;DHT22;18952;52.516;13.460;2024-01-30T09:45:06;5.60;56.40
32502;DHT22;18952;52.516;13.460;2024-01-30T09:47:44;5.70;56.20
32502;DHT22;18952;52.516;13.460;2024-01-30T09:50:14;5.70;55.60
32502;DHT22;18952;52.516;13.460;2024-01-30T09:52:44;5.80;55.90
32502;DHT22;18952;52.516;13.460;2024-01-30T09:55:15;5.80;55.50
32502;DHT22;18952;52.516;13.460;2024-01-30T09:57:42;5.80;55.30
32502;DHT22;18952;52.516;13.460;2024-01-30T10:00:11;5.90;55.40
32502;DHT22;18952;52.516;13.460;2024-01-30T10:02:40;6.00;55.00
32502;DHT22;18952;52.516;13.460;2024-01-30T10:05:09;6.00;55.10
32502;DHT22;18952;52.516;13.460;2024-01-30T10:07:36;6.10;55.80
32502;DHT22;18952;52.516;13.460;2024-01-30T10:10:08;6.10;54.90
32502;DHT22;18952;52.516;13.460;2024-01-30T10:12:39;6.10;54.70
32502;DHT22;18952;52.516;13.460;2024-01-30T10:15:07;6.20;54.40
32502;DHT22;18952;52.516;13.460;2024-01-30T10:17:37;6.30;54.40
32502;DHT22;18952;52.516;13.460;2024-01-30T10:20:05;6.30;54.10
32502;DHT22;18952;52.516;13.460;2024-01-30T10:22:34;6.50;53.80
32502;DHT22;18952;52.516;13.460;2024-01-30T10:25:03;6.50;53.70
32502;DHT22;18952;52.516;13.460;2024-01-30T10:27:33;6.40;53.30
32502;DHT22;18952;52.516;13.460;2024-01-30T10:30:00;6.50;53.50
32502;DHT22;18952;52.516;13.460;2024-01-30T10:32:27;6.40;53.20
32502;DHT22;18952;52.516;13.460;2024-01-30T10:34:55;6.40;53.40
32502;DHT22;18952;52.516;13.460;2024-01-30T10:37:25;6.50;53.30
32502;DHT22;18952;52.516;13.460;2024-01-30T10:39:55;6.60;53.20
32502;DHT22;18952;52.516;13.460;2024-01-30T10:42:27;6.60;53.20
32502;DHT22;18952;52.516;13.460;2024-01-30T10:45:09;6.60;52.80
32502;DHT22;18952;52.516;13.460;2024-01-30T10:47:37;6.60;52.70
32502;DHT22;18952;52.516;13.460;2024-01-30T10:50:08;6.60;52.80
32502;DHT22;18952;52.516;13.460;2024-01-30T10:52:36;6.60;52.30
32502;DHT22;18952;52.516;13.460;2024-01-30T10:55:04;6.70;52.60
32502;DHT22;18952;52.516;13.460;2024-01-30T10:57:34;6.70;52.00
32502;DHT22;18952;52.516;13.460;2024-01-30T11:00:12;6.70;52.10
32502;DHT22;18952;52.516;13.460;2024-01-30T11:02:46;6.70;51.80
32502;DHT22;18952;52.516;13.460;2024-01-30T11:05:14;6.60;51.50
32502;DHT22;18952;52.516;13.460;2024-01-30T11:07:51;6.60;51.90
32502;DHT22;18952;52.516;13.460;2024-01-30T11:10:18;6.60;51.50
32502;DHT22;18952;52.516;13.460;2024-01-30T11:12:46;6.60;51.30
32502;DHT22;18952;52.516;13.460;2024-01-30T11:15:15;6.70;51.50
32502;DHT22;18952;52.516;13.460;2024-01-30T11:20:29;6.80;51.20
32502;DHT22;18952;52.516;13.460;2024-01-30T11:22:59;6.60;51.00
32502;DHT22;18952;52.516;13.460;2024-01-30T11:25:26;6.60;51.20
32502;DHT22;18952;52.516;13.460;2024-01-30T11:27:55;6.70;51.40
32502;DHT22;18952;52.516;13.460;2024-01-30T11:30:30;6.80;51.20
32502;DHT22;18952;52.516;13.460;2024-01-30T11:35:33;6.90;51.10
32502;DHT22;18952;52.516;13.460;2024-01-30T11:38:01;6.90;51.40
32502;DHT22;18952;52.516;13.460;2024-01-30T11:40:30;6.90;51.10
32502;DHT22;18952;52.516;13.460;2024-01-30T11:43:00;7.00;50.90
32502;DHT22;18952;52.516;13.460;2024-01-30T11:45:32;7.10;50.60
32502;DHT22;18952;52.516;13.460;2024-01-30T11:47:59;7.20;50.80
32502;DHT22;18952;52.516;13.460;2024-01-30T11:50:27;7.20;50.80
32502;DHT22;18952;52.516;13.460;2024-01-30T11:52:55;7.30;50.60
32502;DHT22;18952;52.516;13.460;2024-01-30T11:55:23;7.30;50.40
32502;DHT22;18952;52.516;13.460;2024-01-30T11:57:54;7.40;50.40
32502;DHT22;18952;52.516;13.460;2024-01-30T12:00:21;7.40;50.60
32502;DHT22;18952;52.516;13.460;2024-01-30T12:02:52;7.50;50.50
32502;DHT22;18952;52.516;13.460;2024-01-30T12:05:19;7.60;50.30
32502;DHT22;18952;52.516;13.460;2024-01-30T12:07:46;7.70;50.20
32502;DHT22;18952;52.516;13.460;2024-01-30T12:10:17;7.80;49.80
32502;DHT22;18952;52.516;13.460;2024-01-30T12:12:49;7.80;49.80
32502;DHT22;18952;52.516;13.460;2024-01-30T12:15:20;7.80;49.80
32502;DHT22;18952;52.516;13.460;2024-01-30T12:17:49;7.80;49.60
32502;DHT22;18952;52.516;13.460;2024-01-30T12:20:20;7.80;50.30
32502;DHT22;18952;52.516;13.460;2024-01-30T12:22:49;8.00;50.00
32502;DHT22;18952;52.516;13.460;2024-01-30T12:25:20;8.00;49.70
32502;DHT22;18952;52.516;13.460;2024-01-30T12:27:49;8.10;49.60
32502;DHT22;18952;52.516;13.460;2024-01-30T12:30:20;8.20;49.40
32502;DHT22;18952;52.516;13.460;2024-01-30T12:32:50;8.20;49.60
32502;DHT22;18952;52.516;13.460;2024-01-30T12:35:20;8.20;49.50
32502;DHT22;18952;52.516;13.460;2024-01-30T12:37:49;8.30;49.50
32502;DHT22;18952;52.516;13.460;2024-01-30T12:40:17;8.30;49.50
32502;DHT22;18952;52.516;13.460;2024-01-30T12:42:48;8.40;49.40
32502;DHT22;18952;52.516;13.460;2024-01-30T12:45:16;8.40;49.60
32502;DHT22;18952;52.516;13.460;2024-01-30T12:47:43;8.50;49.80
32502;DHT22;18952;52.516;13.460;2024-01-30T12:50:11;8.60;49.70
32502;DHT22;18952;52.516;13.460;2024-01-30T12:52:38;8.70;49.40
32502;DHT22;18952;52.516;13.460;2024-01-30T12:55:06;8.70;49.30
32502;DHT22;18952;52.516;13.460;2024-01-30T12:57:33;8.50;49.80
32502;DHT22;18952;52.516;13.460;2024-01-30T12:59:59;8.60;49.80
32502;DHT22;18952;52.516;13.460;2024-01-30T13:02:29;8.60;49.90
32502;DHT22;18952;52.516;13.460;2024-01-30T13:04:56;8.60;50.00
32502;DHT22;18952;52.516;13.460;2024-01-30T13:07:25;8.60;50.00
32502;DHT22;18952;52.516;13.460;2024-01-30T13:09:52;8.70;49.90
32502;DHT22;18952;52.516;13.460;2024-01-30T13:12:19;8.60;50.10
32502;DHT22;18952;52.516;13.460;2024-01-30T13:14:45;8.60;50.20
32502;DHT22;18952;52.516;13.460;2024-01-30T13:17:14;8.60;51.00
32502;DHT22;18952;52.516;13.460;2024-01-30T13:19:42;8.60;50.50
32502;DHT22;18952;52.516;13.460;2024-01-30T13:22:10;8.60;50.50
32502;DHT22;18952;52.516;13.460;2024-01-30T13:24:38;8.60;50.60
32502;DHT22;18952;52.516;13.460;2024-01-30T13:27:08;8.70;50.60
32502;DHT22;18952;52.516;13.460;2024-01-30T13:29:38;8.80;50.50
32502;DHT22;18952;52.516;13.460;2024-01-30T13:32:07;8.80;50.50
32502;DHT22;18952;52.516;13.460;2024-01-30T13:34:34;8.80;51.30
32502;DHT22;18952;52.516;13.460;2024-01-30T13:37:01;8.80;51.40
32502;DHT22;18952;52.516;13.460;2024-01-30T13:39:29;8.90;50.90
32502;DHT22;18952;52.516;13.460;2024-01-30T13:42:03;8.90;50.90
32502;DHT22;18952;52.516;13.460;2024-01-30T13:44:31;8.80;51.00
32502;DHT22;18952;52.516;13.460;2024-01-30T13:46:59;8.80;51.10
32502;DHT22;18952;52.516;13.460;2024-01-30T13:49:28;8.90;50.70
32502;DHT22;18952;52.516;13.460;2024-01-30T13:51:57;8.90;51.00
32502;DHT22;18952;52.516;13.460;2024-01-30T13:54:24;8.80;51.10
32502;DHT22;18952;52.516;13.460;2024-01-30T13:56:51;8.70;51.30
32502;DHT22;18952;52.516;13.460;2024-01-30T13:59:18;8.60;51.70
32502;DHT22;18952;52.516;13.460;2024-01-30T14:01:45;8.60;51.80
32502;DHT22;18952;52.516;13.460;2024-01-30T14:04:15;8.60;51.90
32502;DHT22;18952;52.516;13.460;2024-01-30T14:06:45;8.60;51.90
32502;DHT22;18952;52.516;13.460;2024-01-30T14:09:24;8.60;52.00
32502;DHT22;18952;52.516;13.460;2024-01-30T14:11:50;8.60;52.20
32502;DHT22;18952;52.516;13.460;2024-01-30T14:14:18;8.60;52.30
32502;DHT22;18952;52.516;13.460;2024-01-30T14:16:47;8.70;52.40
32502;DHT22;18952;52.516;13.460;2024-01-30T14:19:15;8.70;52.10
32502;DHT22;18952;52.516;13.460;2024-01-30T14:21:42;8.70;52.30
32502;DHT22;18952;52.516;13.460;2024-01-30T14:24:12;8.80;52.30
32502;DHT22;18952;52.516;13.460;2024-01-30T14:26:38;8.90;52.20
32502;DHT22;18952;52.516;13.460;2024-01-30T14:29:11;9.00;52.10
32502;DHT22;18952;52.516;13.460;2024-01-30T14:31:38;9.00;52.10
32502;DHT22;18952;52.516;13.460;2024-01-30T14:34:06;9.00;52.00
32502;DHT22;18952;52.516;13.460;2024-01-30T14:36:33;9.00;52.20
32502;DHT22;18952;52.516;13.460;2024-01-30T14:39:01;9.00;52.10
32502;DHT22;18952;52.516;13.460;2024-01-30T14:41:27;9.10;52.30
32502;DHT22;18952;52.516;13.460;2024-01-30T14:43:54;9.00;52.30
32502;DHT22;18952;52.516;13.460;2024-01-30T14:46:21;9.00;52.50
32502;DHT22;18952;52.516;13.460;2024-01-30T14:48:49;9.00;52.40
32502;DHT22;18952;52.516;13.460;2024-01-30T14:51:16;9.10;52.90
32502;DHT22;18952;52.516;13.460;2024-01-30T14:53:43;9.00;52.70
32502;DHT22;18952;52.516;13.460;2024-01-30T14:56:11;9.00;52.90
32502;DHT22;18952;52.516;13.460;2024-01-30T14:58:38;9.00;53.00
32502;DHT22;18952;52.516;13.460;2024-01-30T15:01:05;8.90;53.00
32502;DHT22;18952;52.516;13.460;2024-01-30T15:03:33;8.80;53.30
32502;DHT22;18952;52.516;13.460;2024-01-30T15:06:01;8.80;53.30
32502;DHT22;18952;52.516;13.460;2024-01-30T15:08:29;8.80;53.40
32502;DHT22;18952;52.516;13.460;2024-01-30T15:10:59;8.70;53.80
32502;DHT22;18952;52.516;13.460;2024-01-30T15:13:27;8.60;54.00
32502;DHT22;18952;52.516;13.460;2024-01-30T15:15:54;8.50;54.20
32502;DHT22;18952;52.516;13.460;2024-01-30T15:18:20;8.50;54.40
32502;DHT22;18952;52.516;13.460;2024-01-30T15:20:49;8.40;54.80
32502;DHT22;18952;52.516;13.460;2024-01-30T15:23:17;8.40;55.00
32502;DHT22;18952;52.516;13.460;2024-01-30T15:25:44;8.40;55.20
32502;DHT22;18952;52.516;13.460;2024-01-30T15:28:12;8.30;55.30
32502;DHT22;18952;52.516;13.460;2024-01-30T15:30:39;8.30;55.20
32502;DHT22;18952;52.516;13.460;2024-01-30T15:33:06;8.20;55.50
32502;DHT22;18952;52.516;13.460;2024-01-30T15:35:32;8.20;55.60
32502;DHT22;18952;52.516;13.460;2024-01-30T15:38:01;8.30;55.60
32502;DHT22;18952;52.516;13.460;2024-01-30T15:40:29;8.30;55.70